createdAt,value
2018-03-30T00:01:44.895Z,0.00
2018-03-30T00:02:44.831Z,0.00
2018-03-30T00:04:36.722Z,0.00
2018-03-30T00:05:36.640Z,0.00
2018-03-30T00:07:28.433Z,0.00
2018-03-30T00:08:28.370Z,0.00
2018-03-30T00:10:20.105Z,0.00
2018-03-30T00:11:20.026Z,0.00
2018-03-30T00:13:11.873Z,0.00
2018-03-30T00:14:11.807Z,0.00
2018-03-30T00:16:03.733Z,0.00
2018-03-30T00:17:03.657Z,0.00
2018-03-30T00:18:55.537Z,0.00
2018-03-30T00:19:55.454Z,0.00
2018-03-30T00:21:47.381Z,0.00
2018-03-30T00:22:47.277Z,0.00
2018-03-30T00:24:40.038Z,0.00
2018-03-30T00:25:39.963Z,0.00
2018-03-30T00:27:31.732Z,0.00
2018-03-30T00:28:31.667Z,0.00
2018-03-30T00:30:23.472Z,0.00
2018-03-30T00:31:23.392Z,0.00
2018-03-30T00:33:15.177Z,0.00
2018-03-30T00:34:15.107Z,0.00
2018-03-30T00:36:06.907Z,0.00
2018-03-30T00:37:06.824Z,0.00
2018-03-30T00:38:58.612Z,0.00
2018-03-30T00:39:58.537Z,0.00
2018-03-30T00:41:50.285Z,0.00
2018-03-30T00:42:50.220Z,0.00
2018-03-30T00:44:41.992Z,0.00
2018-03-30T00:45:41.916Z,0.00
2018-03-30T00:47:33.846Z,0.00
2018-03-30T00:48:33.777Z,0.00
2018-03-30T00:50:25.588Z,0.00
2018-03-30T00:51:25.529Z,0.00
2018-03-30T00:53:17.427Z,0.00
2018-03-30T00:54:17.350Z,0.00
2018-03-30T00:56:09.300Z,0.00
2018-03-30T00:57:09.219Z,0.00
2018-03-30T00:59:01.007Z,0.00
2018-03-30T01:00:00.926Z,0.00
2018-03-30T01:01:53.683Z,0.00
2018-03-30T01:02:53.632Z,0.00
2018-03-30T01:04:45.448Z,0.00
2018-03-30T01:05:45.365Z,0.00
2018-03-30T01:07:37.273Z,0.00
2018-03-30T01:08:37.210Z,0.00
2018-03-30T01:10:28.968Z,0.00
2018-03-30T01:11:28.880Z,0.00
2018-03-30T01:13:20.658Z,0.00
2018-03-30T01:14:20.581Z,0.00
2018-03-30T01:16:13.343Z,0.00
2018-03-30T01:17:13.266Z,0.00
2018-03-30T01:19:05.023Z,0.00
2018-03-30T01:20:04.934Z,0.00
2018-03-30T01:21:56.862Z,0.00
2018-03-30T01:22:56.795Z,0.00
2018-03-30T01:24:49.558Z,0.00
2018-03-30T01:25:49.485Z,0.00
2018-03-30T01:27:42.226Z,0.00
2018-03-30T01:28:42.165Z,0.00
2018-03-30T01:30:33.971Z,0.00
2018-03-30T01:31:33.889Z,0.00
2018-03-30T01:33:26.649Z,0.00
2018-03-30T01:34:26.578Z,0.00
2018-03-30T01:36:19.375Z,0.00
2018-03-30T01:37:19.265Z,0.00
2018-03-30T01:39:12.070Z,0.00
2018-03-30T01:40:11.968Z,0.00
2018-03-30T01:42:03.846Z,0.00
2018-03-30T01:43:03.769Z,0.00
2018-03-30T01:44:55.507Z,0.00
2018-03-30T01:45:55.430Z,0.00
2018-03-30T01:47:47.270Z,0.00
2018-03-30T01:48:47.192Z,0.00
2018-03-30T01:50:39.024Z,0.00
2018-03-30T01:51:38.942Z,0.00
2018-03-30T01:53:31.700Z,0.00
2018-03-30T01:54:31.636Z,0.00
2018-03-30T01:56:24.408Z,0.00
2018-03-30T01:57:24.319Z,0.00
2018-03-30T01:59:16.250Z,0.00
2018-03-30T02:00:16.179Z,0.00
2018-03-30T02:02:08.071Z,0.00
2018-03-30T02:03:07.992Z,0.00
2018-03-30T02:04:59.767Z,0.00
2018-03-30T02:05:59.668Z,0.00
2018-03-30T02:07:51.501Z,0.00
2018-03-30T02:08:51.452Z,0.00
2018-03-30T02:10:43.252Z,0.00
2018-03-30T02:11:43.196Z,0.00
2018-03-30T02:13:34.919Z,0.00
2018-03-30T02:14:34.849Z,0.00
2018-03-30T02:16:26.633Z,0.00
2018-03-30T02:17:26.554Z,0.00
2018-03-30T02:19:18.371Z,0.00
2018-03-30T02:20:18.300Z,0.00
2018-03-30T02:22:10.171Z,0.00
2018-03-30T02:23:10.090Z,0.00
2018-03-30T02:25:01.907Z,0.00
2018-03-30T02:26:01.825Z,0.00
2018-03-30T02:27:53.595Z,0.00
2018-03-30T02:28:53.523Z,0.00
2018-03-30T02:30:45.276Z,0.00
2018-03-30T02:31:45.202Z,0.00
2018-03-30T02:33:36.952Z,0.00
2018-03-30T02:34:36.900Z,0.00
2018-03-30T02:36:28.688Z,0.00
2018-03-30T02:37:28.612Z,0.00
2018-03-30T02:39:20.406Z,0.00
2018-03-30T02:40:20.337Z,0.00
2018-03-30T02:42:12.209Z,0.00
2018-03-30T02:43:12.103Z,0.00
2018-03-30T02:45:04.872Z,0.00
2018-03-30T02:46:04.808Z,0.00
2018-03-30T02:47:56.552Z,0.00
2018-03-30T02:48:56.485Z,0.00
2018-03-30T02:50:48.380Z,0.00
2018-03-30T02:51:48.299Z,0.00
2018-03-30T02:53:40.196Z,0.00
2018-03-30T02:54:40.135Z,0.00
2018-03-30T02:56:32.038Z,0.00
2018-03-30T02:57:31.963Z,0.00
2018-03-30T02:59:24.717Z,0.00
2018-03-30T03:00:24.658Z,0.00
2018-03-30T03:02:16.449Z,0.00
2018-03-30T03:03:16.373Z,0.00
2018-03-30T03:05:08.238Z,0.00
2018-03-30T03:06:08.158Z,0.00
2018-03-30T03:08:00.103Z,0.00
2018-03-30T03:09:00.033Z,0.00
2018-03-30T03:10:51.851Z,0.00
2018-03-30T03:11:51.769Z,0.00
2018-03-30T03:13:44.536Z,0.00
2018-03-30T03:14:44.467Z,0.00
2018-03-30T03:16:37.262Z,0.00
2018-03-30T03:17:37.172Z,0.00
2018-03-30T03:19:29.939Z,0.00
2018-03-30T03:20:29.863Z,0.00
2018-03-30T03:22:21.695Z,0.00
2018-03-30T03:23:21.630Z,0.00
2018-03-30T03:25:14.438Z,0.00
2018-03-30T03:26:14.332Z,0.00
2018-03-30T03:28:06.181Z,0.00
2018-03-30T03:29:06.113Z,0.00
2018-03-30T03:30:58.060Z,0.00
2018-03-30T03:31:57.963Z,0.00
2018-03-30T03:33:50.714Z,0.00
2018-03-30T03:34:50.650Z,0.00
2018-03-30T03:36:42.466Z,0.00
2018-03-30T03:37:42.344Z,0.00
2018-03-30T03:39:34.106Z,0.00
2018-03-30T03:40:34.041Z,0.00
2018-03-30T03:42:25.794Z,0.00
2018-03-30T03:43:25.713Z,0.00
2018-03-30T03:45:17.469Z,0.00
2018-03-30T03:46:17.394Z,0.00
2018-03-30T03:48:09.187Z,0.00
2018-03-30T03:49:09.093Z,0.00
2018-03-30T03:51:00.851Z,0.00
2018-03-30T03:52:00.773Z,0.00
2018-03-30T03:53:52.730Z,0.00
2018-03-30T03:54:52.673Z,0.00
2018-03-30T03:56:44.424Z,0.00
2018-03-30T03:57:44.339Z,0.00
2018-03-30T03:59:36.242Z,0.00
2018-03-30T04:00:36.178Z,0.00
2018-03-30T04:02:27.985Z,0.00
2018-03-30T04:03:27.908Z,0.00
2018-03-30T04:05:19.661Z,0.00
2018-03-30T04:06:19.586Z,0.00
2018-03-30T04:08:11.341Z,0.00
2018-03-30T04:09:11.259Z,0.00
2018-03-30T04:11:03.181Z,0.00
2018-03-30T04:12:03.095Z,0.00
2018-03-30T04:13:55.846Z,0.00
2018-03-30T04:14:55.777Z,0.00
2018-03-30T04:16:47.641Z,0.00
2018-03-30T04:17:47.538Z,0.00
2018-03-30T04:19:39.404Z,0.00
2018-03-30T04:20:39.405Z,0.00
2018-03-30T04:22:32.133Z,0.00
2018-03-30T04:23:32.054Z,0.00
2018-03-30T04:25:23.767Z,0.00
2018-03-30T04:26:23.693Z,0.00
2018-03-30T04:28:15.583Z,0.00
2018-03-30T04:29:15.505Z,0.00
2018-03-30T04:31:08.252Z,0.00
2018-03-30T04:32:08.172Z,0.00
2018-03-30T04:34:00.935Z,0.00
2018-03-30T04:35:00.896Z,0.00
2018-03-30T04:36:53.637Z,0.00
2018-03-30T04:37:53.550Z,0.00
2018-03-30T04:39:45.425Z,0.00
2018-03-30T04:40:45.372Z,0.00
2018-03-30T04:42:37.124Z,0.00
2018-03-30T04:43:37.041Z,0.00
2018-03-30T04:45:29.814Z,0.00
2018-03-30T04:46:29.756Z,5.63
2018-03-30T04:48:21.543Z,5.63
2018-03-30T04:49:21.458Z,5.63
2018-03-30T04:51:13.232Z,5.63
2018-03-30T04:52:13.140Z,5.63
2018-03-30T04:54:04.872Z,11.25
2018-03-30T04:55:04.803Z,11.25
2018-03-30T04:56:56.609Z,11.25
2018-03-30T04:57:56.499Z,11.25
2018-03-30T04:59:48.349Z,16.88
2018-03-30T05:00:48.279Z,16.88
2018-03-30T05:02:40.218Z,16.88
2018-03-30T05:03:40.121Z,16.88
2018-03-30T05:05:31.977Z,22.50
2018-03-30T05:06:31.874Z,22.50
2018-03-30T05:08:24.649Z,28.13
2018-03-30T05:09:24.585Z,28.13
2018-03-30T05:11:16.515Z,33.75
2018-03-30T05:12:16.417Z,33.75
2018-03-30T05:14:08.200Z,39.38
2018-03-30T05:15:08.129Z,45.00
2018-03-30T05:17:00.019Z,50.63
2018-03-30T05:17:59.890Z,50.63
2018-03-30T05:19:51.752Z,56.25
2018-03-30T05:20:51.678Z,56.25
2018-03-30T05:22:44.073Z,56.25
2018-03-30T05:23:43.565Z,56.25
2018-03-30T05:25:35.514Z,61.88
2018-03-30T05:26:35.440Z,67.50
2018-03-30T05:28:28.223Z,73.13
2018-03-30T05:29:28.140Z,78.75
2018-03-30T05:31:20.911Z,90.00
2018-03-30T05:32:20.841Z,95.63
2018-03-30T05:34:12.603Z,95.63
2018-03-30T05:35:12.522Z,90.00
2018-03-30T05:37:04.393Z,84.38
2018-03-30T05:38:04.316Z,90.00
2018-03-30T05:39:56.147Z,101.25
2018-03-30T05:40:56.084Z,101.25
2018-03-30T05:42:47.925Z,112.50
2018-03-30T05:43:47.847Z,112.50
2018-03-30T05:45:39.633Z,112.50
2018-03-30T05:46:39.565Z,106.88
2018-03-30T05:48:31.504Z,101.25
2018-03-30T05:49:31.448Z,106.88
2018-03-30T05:51:23.345Z,95.63
2018-03-30T05:52:23.279Z,106.88
2018-03-30T05:54:15.047Z,146.25
2018-03-30T05:55:14.966Z,151.88
2018-03-30T05:57:07.738Z,213.75
2018-03-30T05:58:07.650Z,163.13
2018-03-30T05:59:59.400Z,208.13
2018-03-30T06:00:59.334Z,247.50
2018-03-30T06:02:51.113Z,410.63
2018-03-30T06:03:51.035Z,399.38
2018-03-30T06:05:42.954Z,348.75
2018-03-30T06:06:42.889Z,354.38
2018-03-30T06:08:34.690Z,376.88
2018-03-30T06:09:34.658Z,365.63
2018-03-30T06:11:26.359Z,371.25
2018-03-30T06:12:26.282Z,376.88
2018-03-30T06:14:18.062Z,382.50
2018-03-30T06:15:17.971Z,360.00
2018-03-30T06:17:09.765Z,405.00
2018-03-30T06:18:09.688Z,365.63
2018-03-30T06:20:02.086Z,337.50
2018-03-30T06:21:01.365Z,382.50
2018-03-30T06:22:53.127Z,354.38
2018-03-30T06:23:53.044Z,348.75
2018-03-30T06:25:45.811Z,540.00
2018-03-30T06:26:45.790Z,562.50
2018-03-30T06:28:38.508Z,568.13
2018-03-30T06:29:38.431Z,556.88
2018-03-30T06:31:30.218Z,630.00
2018-03-30T06:32:30.144Z,635.63
2018-03-30T06:34:21.931Z,590.63
2018-03-30T06:35:21.859Z,534.38
2018-03-30T06:37:13.678Z,455.63
2018-03-30T06:38:13.610Z,618.75
2018-03-30T06:40:05.420Z,618.75
2018-03-30T06:41:05.356Z,714.38
2018-03-30T06:42:57.166Z,641.25
2018-03-30T06:43:57.091Z,568.13
2018-03-30T06:45:49.058Z,573.75
2018-03-30T06:46:48.932Z,579.38
2018-03-30T06:48:40.711Z,686.25
2018-03-30T06:49:40.635Z,742.50
2018-03-30T06:51:32.505Z,652.50
2018-03-30T06:52:32.443Z,596.25
2018-03-30T06:54:24.250Z,675.00
2018-03-30T06:55:24.178Z,781.88
2018-03-30T06:57:15.946Z,736.88
2018-03-30T06:58:15.883Z,697.50
2018-03-30T07:00:07.787Z,669.38
2018-03-30T07:01:07.722Z,680.63
2018-03-30T07:03:00.562Z,714.38
2018-03-30T07:04:00.488Z,748.13
2018-03-30T07:05:52.305Z,776.25
2018-03-30T07:06:52.240Z,770.63
2018-03-30T07:08:44.216Z,787.50
2018-03-30T07:09:44.143Z,759.38
2018-03-30T07:11:35.944Z,787.50
2018-03-30T07:12:35.871Z,815.63
2018-03-30T07:14:27.704Z,787.50
2018-03-30T07:15:27.629Z,787.50
2018-03-30T07:17:20.415Z,765.00
2018-03-30T07:18:20.351Z,748.13
2018-03-30T07:20:13.144Z,703.13
2018-03-30T07:21:13.069Z,635.63
2018-03-30T07:23:05.878Z,607.50
2018-03-30T07:24:05.799Z,573.75
2018-03-30T07:25:58.578Z,551.25
2018-03-30T07:26:58.516Z,523.13
2018-03-30T07:28:50.367Z,540.00
2018-03-30T07:29:50.296Z,534.38
2018-03-30T07:31:43.070Z,511.88
2018-03-30T07:32:43.012Z,478.13
2018-03-30T07:34:35.808Z,534.38
2018-03-30T07:35:35.739Z,483.75
2018-03-30T07:37:27.566Z,500.63
2018-03-30T07:38:27.510Z,534.38
2018-03-30T07:40:20.294Z,669.38
2018-03-30T07:41:20.255Z,697.50
2018-03-30T07:43:13.025Z,770.63
2018-03-30T07:44:12.935Z,815.63
2018-03-30T07:46:04.938Z,742.50
2018-03-30T07:47:04.835Z,675.00
2018-03-30T07:48:56.642Z,551.25
2018-03-30T07:49:56.604Z,556.88
2018-03-30T07:51:49.351Z,675.00
2018-03-30T07:52:49.279Z,680.63
2018-03-30T07:54:42.069Z,765.00
2018-03-30T07:55:41.994Z,776.25
2018-03-30T07:57:34.787Z,798.75
2018-03-30T07:58:34.710Z,787.50
2018-03-30T08:00:27.499Z,776.25
2018-03-30T08:01:27.424Z,697.50
2018-03-30T08:03:20.213Z,697.50
2018-03-30T08:04:20.139Z,703.13
2018-03-30T08:06:12.010Z,748.13
2018-03-30T08:07:11.950Z,725.63
2018-03-30T08:09:03.776Z,748.13
2018-03-30T08:10:03.652Z,736.88
2018-03-30T08:11:55.489Z,832.50
2018-03-30T08:12:55.412Z,855.00
2018-03-30T08:14:47.191Z,703.13
2018-03-30T08:15:47.122Z,669.38
2018-03-30T08:17:38.908Z,613.13
2018-03-30T08:18:38.848Z,596.25
2018-03-30T08:20:30.742Z,568.13
2018-03-30T08:21:30.678Z,511.88
2018-03-30T08:23:22.473Z,528.75
2018-03-30T08:24:22.406Z,540.00
2018-03-30T08:26:15.182Z,579.38
2018-03-30T08:27:15.119Z,607.50
2018-03-30T08:29:07.915Z,663.75
2018-03-30T08:30:07.851Z,703.13
2018-03-30T08:31:59.620Z,776.25
2018-03-30T08:32:59.552Z,765.00
2018-03-30T08:34:52.346Z,781.88
2018-03-30T08:35:52.275Z,748.13
2018-03-30T08:37:44.146Z,832.50
2018-03-30T08:38:44.083Z,832.50
2018-03-30T08:40:35.884Z,900.00
2018-03-30T08:41:35.814Z,928.13
2018-03-30T08:43:27.611Z,855.00
2018-03-30T08:44:27.536Z,798.75
2018-03-30T08:46:20.321Z,781.88
2018-03-30T08:47:20.265Z,798.75
2018-03-30T08:49:12.195Z,815.63
2018-03-30T08:50:12.126Z,815.63
2018-03-30T08:52:04.902Z,821.25
2018-03-30T08:53:04.884Z,855.00
2018-03-30T08:54:57.639Z,877.50
2018-03-30T08:55:57.572Z,860.63
2018-03-30T08:57:49.393Z,793.13
2018-03-30T08:58:49.335Z,748.13
2018-03-30T09:00:41.143Z,691.88
2018-03-30T09:01:41.083Z,691.88
2018-03-30T09:03:33.879Z,646.88
2018-03-30T09:04:33.801Z,641.25
2018-03-30T09:06:26.576Z,562.50
2018-03-30T09:07:26.525Z,585.00
2018-03-30T09:09:18.337Z,483.75
2018-03-30T09:10:18.283Z,450.00
2018-03-30T09:12:10.179Z,511.88
2018-03-30T09:13:10.117Z,511.88
2018-03-30T09:15:02.035Z,517.50
2018-03-30T09:16:01.983Z,517.50
2018-03-30T09:17:53.722Z,495.00
2018-03-30T09:18:53.664Z,483.75
2018-03-30T09:20:45.602Z,495.00
2018-03-30T09:21:45.525Z,489.38
2018-03-30T09:23:37.519Z,472.50
2018-03-30T09:24:37.463Z,472.50
2018-03-30T09:26:29.232Z,444.38
2018-03-30T09:27:29.213Z,433.13
2018-03-30T09:29:20.939Z,410.63
2018-03-30T09:30:20.866Z,382.50
2018-03-30T09:32:12.716Z,376.88
2018-03-30T09:33:12.659Z,365.63
2018-03-30T09:35:04.615Z,360.00
2018-03-30T09:36:04.551Z,354.38
2018-03-30T09:37:56.317Z,343.13
2018-03-30T09:38:56.250Z,343.13
2018-03-30T09:40:48.044Z,326.25
2018-03-30T09:41:47.965Z,326.25
2018-03-30T09:43:39.774Z,331.88
2018-03-30T09:44:39.716Z,331.88
2018-03-30T09:46:31.604Z,337.50
2018-03-30T09:47:31.523Z,343.13
2018-03-30T09:49:23.373Z,354.38
2018-03-30T09:50:23.295Z,360.00
2018-03-30T09:52:15.145Z,348.75
2018-03-30T09:53:15.078Z,348.75
2018-03-30T09:55:07.874Z,343.13
2018-03-30T09:56:07.800Z,343.13
2018-03-30T09:57:59.741Z,343.13
2018-03-30T09:58:59.673Z,343.13
2018-03-30T10:00:51.560Z,348.75
2018-03-30T10:01:51.532Z,348.75
2018-03-30T10:03:43.248Z,337.50
2018-03-30T10:04:43.193Z,331.88
2018-03-30T10:06:35.984Z,331.88
2018-03-30T10:07:35.906Z,331.88
2018-03-30T10:09:27.671Z,331.88
2018-03-30T10:10:27.602Z,331.88
2018-03-30T10:12:19.386Z,337.50
2018-03-30T10:13:19.325Z,343.13
2018-03-30T10:15:11.200Z,348.75
2018-03-30T10:16:11.130Z,348.75
2018-03-30T10:18:02.903Z,365.63
2018-03-30T10:19:02.847Z,371.25
2018-03-30T10:20:54.766Z,393.75
2018-03-30T10:21:54.691Z,416.25
2018-03-30T10:23:46.593Z,455.63
2018-03-30T10:24:46.512Z,472.50
2018-03-30T10:26:38.424Z,466.88
2018-03-30T10:27:38.347Z,455.63
2018-03-30T10:29:30.248Z,433.13
2018-03-30T10:30:30.170Z,427.50
2018-03-30T10:32:22.098Z,410.63
2018-03-30T10:33:22.011Z,399.38
2018-03-30T10:35:13.783Z,393.75
2018-03-30T10:36:13.716Z,399.38
2018-03-30T10:38:06.494Z,410.63
2018-03-30T10:39:06.434Z,421.88
2018-03-30T10:40:59.223Z,433.13
2018-03-30T10:41:59.142Z,433.13
2018-03-30T10:43:50.917Z,450.00
2018-03-30T10:44:50.836Z,495.00
2018-03-30T10:46:42.615Z,495.00
2018-03-30T10:47:42.564Z,455.63
2018-03-30T10:49:34.364Z,511.88
2018-03-30T10:50:34.269Z,545.63
2018-03-30T10:52:26.113Z,540.00
2018-03-30T10:53:26.048Z,489.38
2018-03-30T10:55:17.878Z,483.75
2018-03-30T10:56:17.807Z,450.00
2018-03-30T10:58:10.580Z,399.38
2018-03-30T10:59:10.630Z,388.13
2018-03-30T11:01:02.277Z,478.13
2018-03-30T11:02:02.204Z,489.38
2018-03-30T11:03:54.986Z,517.50
2018-03-30T11:04:54.916Z,556.88
2018-03-30T11:06:46.697Z,551.25
2018-03-30T11:07:46.622Z,523.13
2018-03-30T11:09:39.408Z,455.63
2018-03-30T11:10:39.344Z,433.13
2018-03-30T11:12:31.135Z,500.63
2018-03-30T11:13:31.066Z,528.75
2018-03-30T11:15:23.858Z,573.75
2018-03-30T11:16:23.789Z,601.88
2018-03-30T11:18:15.731Z,1985.63
2018-03-30T11:19:15.673Z,2486.25
2018-03-30T11:21:08.465Z,2053.13
2018-03-30T11:22:08.391Z,2030.63
2018-03-30T11:24:00.260Z,1811.25
2018-03-30T11:25:00.181Z,1715.63
2018-03-30T11:26:52.956Z,1884.38
2018-03-30T11:27:52.883Z,1828.13
2018-03-30T11:29:44.775Z,1923.75
2018-03-30T11:30:44.720Z,1530.00
2018-03-30T11:32:36.547Z,253.13
2018-03-30T11:33:36.470Z,225.00
2018-03-30T11:35:29.265Z,213.75
2018-03-30T11:36:29.198Z,208.13
2018-03-30T11:38:22.014Z,202.50
2018-03-30T11:39:21.920Z,202.50
2018-03-30T11:41:13.766Z,196.88
2018-03-30T11:42:13.691Z,191.25
2018-03-30T11:44:06.465Z,191.25
2018-03-30T11:45:06.407Z,185.63
2018-03-30T11:46:58.270Z,191.25
2018-03-30T11:47:58.146Z,185.63
2018-03-30T11:49:51.204Z,180.00
2018-03-30T11:50:51.113Z,180.00
2018-03-30T11:52:44.014Z,180.00
2018-03-30T11:53:43.895Z,180.00
2018-03-30T11:55:36.683Z,180.00
2018-03-30T11:56:36.618Z,174.38
2018-03-30T11:58:28.519Z,174.38
2018-03-30T11:59:28.421Z,174.38
2018-03-30T12:01:20.529Z,174.38
2018-03-30T12:02:20.487Z,174.38
2018-03-30T12:04:13.273Z,174.38
2018-03-30T12:05:13.238Z,168.75
2018-03-30T12:07:06.132Z,168.75
2018-03-30T12:08:05.928Z,168.75
2018-03-30T12:09:57.849Z,168.75
2018-03-30T12:10:57.866Z,174.38
2018-03-30T12:12:49.724Z,168.75
2018-03-30T12:13:49.600Z,168.75
2018-03-30T12:15:41.481Z,168.75
2018-03-30T12:16:41.346Z,168.75
2018-03-30T12:18:33.269Z,168.75
2018-03-30T12:19:33.187Z,168.75
2018-03-30T12:21:25.032Z,168.75
2018-03-30T12:22:24.954Z,168.75
2018-03-30T12:24:16.887Z,168.75
2018-03-30T12:25:16.774Z,168.75
2018-03-30T12:27:08.636Z,168.75
2018-03-30T12:28:08.535Z,168.75
2018-03-30T12:30:01.361Z,168.75
2018-03-30T12:31:01.291Z,174.38
2018-03-30T12:32:53.252Z,174.38
2018-03-30T12:33:53.147Z,174.38
2018-03-30T12:35:45.053Z,168.75
2018-03-30T12:36:44.980Z,174.38
2018-03-30T12:38:37.756Z,174.38
2018-03-30T12:39:37.683Z,174.38
2018-03-30T12:41:29.483Z,168.75
2018-03-30T12:42:29.461Z,174.38
2018-03-30T12:44:22.177Z,174.38
2018-03-30T12:45:22.122Z,174.38
2018-03-30T12:47:13.915Z,174.38
2018-03-30T12:48:13.802Z,174.38
2018-03-30T12:50:05.680Z,174.38
2018-03-30T12:51:05.613Z,174.38
2018-03-30T12:52:58.573Z,174.38
2018-03-30T12:53:58.326Z,174.38
2018-03-30T12:55:51.148Z,174.38
2018-03-30T12:56:51.044Z,174.38
2018-03-30T12:58:43.804Z,174.38
2018-03-30T12:59:43.757Z,174.38
2018-03-30T13:01:35.589Z,174.38
2018-03-30T13:02:35.531Z,174.38
2018-03-30T13:04:27.314Z,174.38
2018-03-30T13:05:27.257Z,174.38
2018-03-30T13:07:19.040Z,168.75
2018-03-30T13:08:18.968Z,174.38
2018-03-30T13:10:10.782Z,174.38
2018-03-30T13:11:10.720Z,174.38
2018-03-30T13:13:02.552Z,174.38
2018-03-30T13:14:02.475Z,174.38
2018-03-30T13:15:54.301Z,174.38
2018-03-30T13:16:54.251Z,174.38
2018-03-30T13:18:46.067Z,174.38
2018-03-30T13:19:45.995Z,174.38
2018-03-30T13:21:37.775Z,174.38
2018-03-30T13:22:37.701Z,174.38
2018-03-30T13:24:29.448Z,174.38
2018-03-30T13:25:29.382Z,174.38
2018-03-30T13:27:22.174Z,174.38
2018-03-30T13:28:22.090Z,174.38
2018-03-30T13:30:14.025Z,174.38
2018-03-30T13:31:13.959Z,174.38
2018-03-30T13:33:05.826Z,174.38
2018-03-30T13:34:05.735Z,174.38
2018-03-30T13:35:58.462Z,180.00
2018-03-30T13:36:58.398Z,174.38
2018-03-30T13:38:50.807Z,180.00
2018-03-30T13:39:50.213Z,174.38
2018-03-30T13:41:42.985Z,174.38
2018-03-30T13:42:42.910Z,174.38
2018-03-30T13:44:34.658Z,174.38
2018-03-30T13:45:34.591Z,174.38
2018-03-30T13:47:26.446Z,174.38
2018-03-30T13:48:26.370Z,174.38
2018-03-30T13:50:18.173Z,174.38
2018-03-30T13:51:18.140Z,174.38
2018-03-30T13:53:10.044Z,174.38
2018-03-30T13:54:09.817Z,174.38
2018-03-30T13:56:01.648Z,174.38
2018-03-30T13:57:01.597Z,174.38
2018-03-30T13:58:53.409Z,174.38
2018-03-30T13:59:53.311Z,174.38
2018-03-30T14:01:45.087Z,174.38
2018-03-30T14:02:45.037Z,168.75
2018-03-30T14:04:36.814Z,174.38
2018-03-30T14:05:36.748Z,168.75
2018-03-30T14:07:28.538Z,168.75
2018-03-30T14:08:28.559Z,168.75
2018-03-30T14:10:21.288Z,168.75
2018-03-30T14:11:21.167Z,168.75
2018-03-30T14:13:13.016Z,174.38
2018-03-30T14:14:12.943Z,168.75
2018-03-30T14:16:04.766Z,168.75
2018-03-30T14:17:04.670Z,168.75
2018-03-30T14:18:56.454Z,168.75
2018-03-30T14:19:56.379Z,163.13
2018-03-30T14:21:48.165Z,157.50
2018-03-30T14:22:48.102Z,163.13
2018-03-30T14:24:39.922Z,157.50
2018-03-30T14:25:39.885Z,157.50
2018-03-30T14:27:33.245Z,168.75
2018-03-30T14:28:32.598Z,157.50
2018-03-30T14:30:24.379Z,157.50
2018-03-30T14:31:24.306Z,163.13
2018-03-30T14:33:17.180Z,168.75
2018-03-30T14:34:17.049Z,168.75
2018-03-30T14:36:08.878Z,163.13
2018-03-30T14:37:08.806Z,163.13
2018-03-30T14:39:00.594Z,163.13
2018-03-30T14:40:00.652Z,163.13
2018-03-30T14:41:52.428Z,157.50
2018-03-30T14:42:52.361Z,157.50
2018-03-30T14:44:44.263Z,163.13
2018-03-30T14:45:44.239Z,146.25
2018-03-30T14:47:35.957Z,151.88
2018-03-30T14:48:35.895Z,95.63
2018-03-30T14:50:28.734Z,140.63
2018-03-30T14:51:28.599Z,157.50
2018-03-30T14:53:20.564Z,163.13
2018-03-30T14:54:20.484Z,168.75
2018-03-30T14:56:12.274Z,168.75
2018-03-30T14:57:12.237Z,168.75
2018-03-30T14:59:04.008Z,163.13
2018-03-30T15:00:03.944Z,157.50
2018-03-30T15:01:55.744Z,151.88
2018-03-30T15:02:55.680Z,118.13
2018-03-30T15:04:47.508Z,129.38
2018-03-30T15:05:47.406Z,129.38
2018-03-30T15:07:39.224Z,146.25
2018-03-30T15:08:39.190Z,151.88
2018-03-30T15:10:30.948Z,157.50
2018-03-30T15:11:30.873Z,151.88
2018-03-30T15:13:22.689Z,112.50
2018-03-30T15:14:22.560Z,106.88
2018-03-30T15:16:14.367Z,140.63
2018-03-30T15:17:14.284Z,151.88
2018-03-30T15:19:06.092Z,140.63
2018-03-30T15:20:06.044Z,146.25
2018-03-30T15:21:58.958Z,151.88
2018-03-30T15:22:58.950Z,157.50
2018-03-30T15:24:50.664Z,157.50
2018-03-30T15:25:50.591Z,146.25
2018-03-30T15:27:42.382Z,135.00
2018-03-30T15:28:42.316Z,118.13
2018-03-30T15:30:34.091Z,106.88
2018-03-30T15:31:34.017Z,106.88
2018-03-30T15:33:25.943Z,112.50
2018-03-30T15:34:25.881Z,106.88
2018-03-30T15:36:17.673Z,101.25
2018-03-30T15:37:17.609Z,106.88
2018-03-30T15:39:09.366Z,106.88
2018-03-30T15:40:09.293Z,112.50
2018-03-30T15:42:01.122Z,118.13
2018-03-30T15:43:01.078Z,112.50
2018-03-30T15:44:52.973Z,101.25
2018-03-30T15:45:52.848Z,101.25
2018-03-30T15:47:44.733Z,118.13
2018-03-30T15:48:44.643Z,118.13
2018-03-30T15:50:36.418Z,106.88
2018-03-30T15:51:36.341Z,101.25
2018-03-30T15:53:28.180Z,106.88
2018-03-30T15:54:28.052Z,101.25
2018-03-30T15:56:19.886Z,95.63
2018-03-30T15:57:19.808Z,90.00
2018-03-30T15:59:11.641Z,95.63
2018-03-30T16:00:11.578Z,95.63
2018-03-30T16:02:03.416Z,95.63
2018-03-30T16:03:03.324Z,95.63
2018-03-30T16:04:55.117Z,90.00
2018-03-30T16:05:55.014Z,90.00
2018-03-30T16:07:46.764Z,90.00
2018-03-30T16:08:46.703Z,90.00
2018-03-30T16:10:38.479Z,84.38
2018-03-30T16:11:38.418Z,84.38
2018-03-30T16:13:30.156Z,84.38
2018-03-30T16:14:30.095Z,78.75
2018-03-30T16:16:22.135Z,78.75
2018-03-30T16:17:21.835Z,73.13
2018-03-30T16:19:13.608Z,67.50
2018-03-30T16:20:13.540Z,67.50
2018-03-30T16:22:05.304Z,61.88
2018-03-30T16:23:05.229Z,61.88
2018-03-30T16:24:57.004Z,56.25
2018-03-30T16:25:56.937Z,56.25
2018-03-30T16:27:48.738Z,56.25
2018-03-30T16:28:48.728Z,50.63
2018-03-30T16:30:40.472Z,50.63
2018-03-30T16:31:40.409Z,56.25
2018-03-30T16:33:32.204Z,50.63
2018-03-30T16:34:32.160Z,45.00
2018-03-30T16:36:24.049Z,45.00
2018-03-30T16:37:23.986Z,45.00
2018-03-30T16:39:15.861Z,45.00
2018-03-30T16:40:15.677Z,39.38
2018-03-30T16:42:07.442Z,39.38
2018-03-30T16:43:07.350Z,39.38
2018-03-30T16:44:59.102Z,39.38
2018-03-30T16:45:59.037Z,33.75
2018-03-30T16:47:50.823Z,33.75
2018-03-30T16:48:50.738Z,33.75
2018-03-30T16:50:42.598Z,33.75
2018-03-30T16:51:42.425Z,33.75
2018-03-30T16:53:34.244Z,33.75
2018-03-30T16:54:34.155Z,33.75
2018-03-30T16:56:25.903Z,28.13
2018-03-30T16:57:25.841Z,28.13
2018-03-30T16:59:17.612Z,28.13
2018-03-30T17:00:17.534Z,28.13
2018-03-30T17:02:09.469Z,22.50
2018-03-30T17:03:09.221Z,22.50
2018-03-30T17:05:00.966Z,22.50
2018-03-30T17:06:00.896Z,22.50
2018-03-30T17:07:52.655Z,16.88
2018-03-30T17:08:52.571Z,16.88
2018-03-30T17:10:44.364Z,16.88
2018-03-30T17:11:44.297Z,16.88
2018-03-30T17:13:36.118Z,16.88
2018-03-30T17:14:36.018Z,11.25
2018-03-30T17:16:27.761Z,11.25
2018-03-30T17:17:27.700Z,11.25
2018-03-30T17:19:19.449Z,11.25
2018-03-30T17:20:19.374Z,11.25
2018-03-30T17:22:11.143Z,5.63
2018-03-30T17:23:11.155Z,5.63
2018-03-30T17:25:02.824Z,5.63
2018-03-30T17:26:02.764Z,5.63
2018-03-30T17:27:54.543Z,5.63
2018-03-30T17:28:54.449Z,5.63
2018-03-30T17:30:46.213Z,5.63
2018-03-30T17:31:46.149Z,0.00
2018-03-30T17:33:37.914Z,0.00
2018-03-30T17:34:37.832Z,0.00
2018-03-30T17:36:29.630Z,0.00
2018-03-30T17:37:29.588Z,0.00
2018-03-30T17:39:21.395Z,0.00
2018-03-30T17:40:21.305Z,0.00
2018-03-30T17:42:13.202Z,0.00
2018-03-30T17:43:13.110Z,0.00
2018-03-30T17:45:04.917Z,0.00
2018-03-30T17:46:04.842Z,0.00
2018-03-30T17:47:56.638Z,0.00
2018-03-30T17:48:56.557Z,0.00
2018-03-30T17:50:48.371Z,0.00
2018-03-30T17:51:48.309Z,0.00
2018-03-30T17:53:40.115Z,0.00
2018-03-30T17:54:40.038Z,0.00
2018-03-30T17:56:31.807Z,0.00
2018-03-30T17:57:31.736Z,0.00
2018-03-30T17:59:23.592Z,0.00
2018-03-30T18:00:23.478Z,0.00
2018-03-30T18:02:15.255Z,0.00
2018-03-30T18:03:15.205Z,0.00
2018-03-30T18:05:07.113Z,0.00
2018-03-30T18:06:07.067Z,0.00
2018-03-30T18:07:58.819Z,0.00
2018-03-30T18:08:58.741Z,0.00
2018-03-30T18:10:50.545Z,0.00
2018-03-30T18:11:50.478Z,0.00
2018-03-30T18:13:42.230Z,0.00
2018-03-30T18:14:42.157Z,0.00
2018-03-30T18:16:33.918Z,0.00
2018-03-30T18:17:33.843Z,0.00
2018-03-30T18:19:25.638Z,0.00